createdAt,value
2022-11-20T00:06:16.783Z,215.87290969899666
2022-11-20T00:13:03.991Z,221.62876254180603
2022-11-20T00:19:31.966Z,213.87959866220737
2022-11-20T00:26:02.008Z,210.1304347826087
2022-11-20T00:32:29.551Z,204.38795986622074
2022-11-20T00:39:02.719Z,196.05351170568562
2022-11-20T00:45:37.534Z,204.72909698996656
2022-11-20T00:52:06.694Z,197.6086956521739
2022-11-20T00:58:36.249Z,199.61872909698997
2022-11-20T01:27:05.280Z,207.61204013377926
2022-11-20T01:33:36.511Z,195.42140468227424
2022-11-20T01:42:50.556Z,203.48160535117057
2022-11-20T01:49:47.498Z,200.14715719063545
2022-11-20T02:03:04.771Z,212.4314381270903
2022-11-20T02:31:50.206Z,204.65886287625418
2022-11-20T02:38:22.455Z,209.98996655518394
2022-11-20T02:44:54.694Z,203.44481605351172
2022-11-20T02:53:30.530Z,233.49832775919734
2022-11-20T03:05:41.497Z,257.561872909699
2022-11-20T03:12:11.406Z,251.05016722408027
2022-11-20T03:18:41.933Z,260.3478260869565
2022-11-20T03:29:11.638Z,222.26755852842808
2022-11-20T03:35:44.744Z,215.98327759197323
2022-11-20T03:44:45.112Z,205.1170568561873
2022-11-20T03:51:14.624Z,194.22073578595317
2022-11-20T04:03:34.669Z,179.63545150501673
2022-11-20T04:11:09.088Z,154.1371237458194
2022-11-20T04:17:41.174Z,141.08361204013377
2022-11-20T04:25:44.150Z,134.16387959866222
2022-11-20T04:32:14.963Z,140.43478260869566
2022-11-20T04:44:05.948Z,138.01672240802677
2022-11-20T04:56:19.577Z,129.2876254180602
2022-11-20T05:02:49.487Z,129.87625418060202
2022-11-20T05:09:35.878Z,128.5752508361204
2022-11-20T05:20:22.222Z,124.45819397993311
2022-11-20T05:26:55.561Z,119.85953177257525
2022-11-20T05:33:23.732Z,116.17725752508362
2022-11-20T05:39:57.495Z,114.5886287625418
2022-11-20T05:54:23.750Z,115.90969899665552
2022-11-20T06:00:54.358Z,113.96655518394648
2022-11-20T06:07:23.986Z,112.14046822742475
2022-11-20T06:13:54.568Z,116.5351170568562
2022-11-20T06:20:25.486Z,103.68227424749163
2022-11-20T06:26:57.249Z,115.07023411371237
2022-11-20T06:33:30.269Z,116.95986622073579
2022-11-20T06:45:11.239Z,106.59531772575251
2022-11-20T06:57:09.933Z,110.8428093645485
2022-11-20T07:03:42.540Z,135.46822742474916
2022-11-20T07:15:59.793Z,128.11371237458195
2022-11-20T07:22:28.464Z,122.63210702341136
2022-11-20T07:28:58.457Z,134.9264214046823
2022-11-20T07:36:27.721Z,137.51839464882943
2022-11-20T07:51:34.307Z,148.19063545150502
2022-11-20T08:08:42.414Z,148.80602006688963
2022-11-20T08:15:13.265Z,172.5953177257525
2022-11-20T08:24:54.238Z,181.44481605351172
2022-11-20T08:40:27.767Z,175.7859531772575
2022-11-20T08:46:55.615Z,171.72240802675586
2022-11-20T08:53:23.377Z,178.2173913043478
2022-11-20T09:00:05.490Z,168.50501672240802
2022-11-20T09:06:34.872Z,173.79598662207357
2022-11-20T09:13:13.542Z,164.438127090301
2022-11-20T09:32:24.752Z,162.00334448160535
2022-11-20T09:38:51.920Z,162.02341137123747
2022-11-20T09:45:21.764Z,158.0267558528428
2022-11-20T09:52:17.863Z,157.89297658862876
2022-11-20T09:58:54.861Z,155.23745819397993
2022-11-20T10:21:44.395Z,167.77257525083613
2022-11-20T10:37:45.022Z,174.13377926421404
2022-11-20T10:44:18.989Z,166.0334448160535
2022-11-20T10:56:23.884Z,176.26421404682273
2022-11-20T11:09:48.079Z,165.64548494983276
2022-11-20T11:16:28.478Z,164.9297658862876
2022-11-20T11:26:34.183Z,171.81270903010034
2022-11-20T11:33:04.054Z,164.76254180602007
2022-11-20T11:42:32.932Z,154.09698996655518
2022-11-20T11:51:41.538Z,167.0735785953177
2022-11-20T11:58:08.708Z,151.21070234113714
2022-11-20T12:13:54.383Z,141.752508361204
2022-11-20T12:25:59.486Z,148.247491638796
2022-11-20T12:48:00.434Z,149.34113712374582
2022-11-20T12:54:31.011Z,126.32107023411372
2022-11-20T13:08:44.683Z,117.54180602006689
2022-11-20T13:15:14.241Z,113.27759197324414
2022-11-20T13:21:47.125Z,112.85953177257525
2022-11-20T13:28:19.105Z,127.7123745819398
2022-11-20T13:34:49.024Z,130.60535117056855
2022-11-20T13:41:20.811Z,131.09698996655518
2022-11-20T13:47:52.589Z,134.20066889632108
2022-11-20T13:54:25.435Z,125.41471571906355
2022-11-20T14:00:59.022Z,120.15384615384616
2022-11-20T14:07:28.175Z,125.90635451505017
2022-11-20T14:14:11.261Z,126.47491638795987
2022-11-20T14:20:39.055Z,133.63545150501673
2022-11-20T14:27:07.860Z,142.64548494983276
2022-11-20T14:33:37.058Z,146.16722408026754
2022-11-20T14:40:06.151Z,155.5418060200669
2022-11-20T14:48:29.995Z,169.2608695652174
2022-11-20T15:01:16.193Z,162.98996655518394
2022-11-20T15:07:45.652Z,177.58528428093646
2022-11-20T15:25:21.808Z,190.9866220735786
2022-11-20T15:31:50.181Z,209.8829431438127
2022-11-20T15:42:04.252Z,211.87959866220737
2022-11-20T15:48:32.251Z,208.86622073578596
2022-11-20T15:55:00.691Z,210.17391304347825
2022-11-20T16:03:10.626Z,221.5284280936455
2022-11-20T16:09:50.392Z,212.15384615384616
2022-11-20T16:18:11.952Z,252.83612040133778
2022-11-20T16:29:00.110Z,389.6923076923077
2022-11-20T16:38:35.046Z,319.5083612040134
2022-11-20T16:52:01.449Z,286.70234113712377
2022-11-20T16:58:31.013Z,322.0033444816053
2022-11-20T17:06:22.067Z,262.3511705685619
2022-11-20T17:12:51.834Z,274.2073578595318
2022-11-20T17:23:36.798Z,251.561872909699
2022-11-20T17:36:29.151Z,211.23411371237458
2022-11-20T17:42:59.464Z,188.62876254180603
2022-11-20T17:51:26.098Z,193.7056856187291
2022-11-20T18:13:47.616Z,226.95652173913044
2022-11-20T18:20:31.062Z,247.9732441471572
2022-11-20T18:33:28.103Z,247.3913043478261
2022-11-20T18:46:59.117Z,265.32775919732444
2022-11-20T18:53:27.782Z,257.94983277591973
2022-11-20T18:59:56.223Z,265.94983277591973
2022-11-20T19:12:35.675Z,260.88963210702343
2022-11-20T19:28:34.163Z,235.5284280936455
2022-11-20T19:41:23.464Z,247.84615384615384
2022-11-20T19:48:08.278Z,258.5886287625418
2022-11-20T20:06:02.211Z,286.60869565217394
2022-11-20T20:12:44.506Z,279.2341137123746
2022-11-20T20:19:13.586Z,280.46153846153845
2022-11-20T20:25:42.607Z,269.9264214046823
2022-11-20T20:32:11.900Z,268.04347826086956
2022-11-20T20:38:46.368Z,274.2240802675585
2022-11-20T20:50:00.974Z,270.7826086956522
2022-11-20T20:56:31.036Z,277.95652173913044
2022-11-20T21:03:02.621Z,278.3344481605351
2022-11-20T21:18:02.666Z,322.7926421404682
2022-11-20T21:24:39.067Z,318.81605351170566
2022-11-20T21:31:17.422Z,314.7391304347826
2022-11-20T21:37:51.840Z,313.26421404682276
2022-11-20T21:44:40.982Z,333.2876254180602
2022-11-20T21:51:12.287Z,332.933110367893
2022-11-20T21:57:42.659Z,323.5652173913044
2022-11-20T22:04:13.405Z,317.8494983277592
2022-11-20T22:10:50.904Z,319.3444816053512
2022-11-20T22:32:44.755Z,303.52842809364546
2022-11-20T22:39:15.666Z,288.70234113712377
2022-11-20T22:51:43.934Z,281.25752508361205
2022-11-20T22:58:18.853Z,293.2173913043478
2022-11-20T23:10:19.217Z,295.9397993311037
2022-11-20T23:18:07.883Z,288.26421404682276
2022-11-20T23:27:54.963Z,276.7993311036789
2022-11-20T23:34:22.416Z,261.33779264214047
2022-11-20T23:44:09.835Z,285.09698996655516
2022-11-20T23:50:37.168Z,292.89297658862876
2022-11-20T23:57:04.614Z,293.1438127090301
